createdAt,value
2019-06-26T00:01:42.021Z,24.70
2019-06-26T00:04:12.303Z,24.70
2019-06-26T00:06:42.561Z,24.70
2019-06-26T00:09:12.823Z,24.70
2019-06-26T00:11:43.187Z,24.70
2019-06-26T00:14:13.460Z,24.70
2019-06-26T00:16:43.736Z,24.60
2019-06-26T00:19:14.010Z,24.60
2019-06-26T00:21:44.279Z,24.60
2019-06-26T00:24:14.539Z,24.60
2019-06-26T00:26:44.818Z,24.50
2019-06-26T00:29:15.085Z,24.50
2019-06-26T00:31:45.350Z,24.50
2019-06-26T00:34:15.630Z,24.50
2019-06-26T00:36:45.918Z,24.50
2019-06-26T00:39:16.274Z,24.50
2019-06-26T00:41:46.546Z,24.40
2019-06-26T00:44:16.814Z,24.40
2019-06-26T00:46:47.140Z,24.40
2019-06-26T00:49:17.413Z,24.40
2019-06-26T00:51:48.674Z,24.40
2019-06-26T00:54:18.923Z,24.40
2019-06-26T00:56:49.200Z,24.40
2019-06-26T00:59:19.492Z,24.30
2019-06-26T01:01:49.820Z,24.30
2019-06-26T01:04:21.807Z,24.30
2019-06-26T01:06:52.069Z,24.30
2019-06-26T01:09:22.329Z,24.30
2019-06-26T01:11:52.575Z,24.20
2019-06-26T01:14:22.960Z,24.20
2019-06-26T01:16:53.200Z,24.20
2019-06-26T01:19:23.444Z,24.20
2019-06-26T01:21:53.703Z,24.20
2019-06-26T01:24:23.978Z,24.10
2019-06-26T01:26:54.243Z,24.10
2019-06-26T01:29:24.519Z,24.10
2019-06-26T01:31:54.780Z,24.10
2019-06-26T01:34:25.059Z,24.10
2019-06-26T01:36:55.321Z,24.10
2019-06-26T01:39:25.692Z,24.10
2019-06-26T01:41:55.963Z,24.10
2019-06-26T01:44:27.847Z,24.00
2019-06-26T01:46:58.119Z,24.00
2019-06-26T01:49:29.346Z,23.90
2019-06-26T01:51:59.598Z,23.90
2019-06-26T01:54:29.875Z,23.90
2019-06-26T01:57:00.125Z,23.90
2019-06-26T01:59:30.406Z,23.90
2019-06-26T02:02:00.666Z,23.80
2019-06-26T02:04:30.938Z,23.80
2019-06-26T02:07:01.204Z,23.80
2019-06-26T02:09:31.465Z,23.80
2019-06-26T02:12:01.732Z,23.80
2019-06-26T02:14:32.051Z,23.80
2019-06-26T02:17:02.289Z,23.70
2019-06-26T02:19:32.548Z,23.70
2019-06-26T02:22:02.827Z,23.70
2019-06-26T02:24:33.105Z,23.70
2019-06-26T02:27:03.403Z,23.70
2019-06-26T02:29:33.757Z,23.70
2019-06-26T02:32:04.028Z,23.70
2019-06-26T02:34:34.300Z,23.60
2019-06-26T02:37:04.724Z,23.60
2019-06-26T02:39:35.001Z,23.60
2019-06-26T02:42:05.271Z,23.60
2019-06-26T02:44:52.122Z,23.60
2019-06-26T02:47:19.453Z,23.60
2019-06-26T02:49:41.201Z,23.60
2019-06-26T02:52:11.465Z,23.60
2019-06-26T02:54:54.356Z,23.60
2019-06-26T02:57:24.698Z,23.60
2019-06-26T02:59:54.997Z,23.60
2019-06-26T03:02:25.268Z,23.50
2019-06-26T03:04:55.582Z,23.50
2019-06-26T03:07:25.852Z,23.50
2019-06-26T03:09:56.250Z,23.50
2019-06-26T03:12:26.533Z,23.50
2019-06-26T03:15:08.265Z,23.50
2019-06-26T03:17:28.814Z,23.50
2019-06-26T03:19:59.100Z,23.50
2019-06-26T03:22:29.374Z,23.50
2019-06-26T03:24:59.671Z,23.40
2019-06-26T03:27:29.962Z,23.40
2019-06-26T03:30:00.230Z,23.40
2019-06-26T03:32:30.595Z,23.40
2019-06-26T03:35:00.883Z,23.40
2019-06-26T03:37:31.428Z,23.40
2019-06-26T03:40:01.878Z,23.30
2019-06-26T03:42:32.331Z,23.30
2019-06-26T03:45:02.774Z,23.30
2019-06-26T03:47:33.126Z,23.30
2019-06-26T03:50:04.917Z,23.30
2019-06-26T03:52:35.209Z,23.30
2019-06-26T03:55:06.587Z,23.20
2019-06-26T03:57:36.880Z,23.20
2019-06-26T04:00:10.333Z,23.20
2019-06-26T04:02:40.716Z,23.20
2019-06-26T04:05:13.099Z,23.20
2019-06-26T04:07:43.393Z,23.20
2019-06-26T04:10:13.754Z,23.20
2019-06-26T04:12:44.044Z,23.20
2019-06-26T04:15:14.727Z,23.20
2019-06-26T04:17:45.179Z,23.20
2019-06-26T04:20:15.516Z,23.20
2019-06-26T04:22:47.631Z,23.30
2019-06-26T04:25:18.243Z,23.30
2019-06-26T04:27:48.527Z,23.30
2019-06-26T04:30:19.067Z,23.30
2019-06-26T04:32:49.396Z,23.30
2019-06-26T04:35:19.846Z,23.30
2019-06-26T04:37:50.125Z,23.40
2019-06-26T04:40:21.496Z,23.40
2019-06-26T04:42:51.804Z,23.40
2019-06-26T04:45:22.148Z,23.40
2019-06-26T04:47:52.433Z,23.50
2019-06-26T04:50:23.048Z,23.50
2019-06-26T04:52:53.338Z,23.50
2019-06-26T04:55:23.617Z,23.60
2019-06-26T04:57:53.946Z,23.60
2019-06-26T05:00:24.905Z,23.70
2019-06-26T05:02:55.138Z,23.70
2019-06-26T05:05:38.606Z,23.80
2019-06-26T05:07:57.510Z,23.90
2019-06-26T05:10:27.814Z,23.90
2019-06-26T05:12:58.134Z,23.90
2019-06-26T05:15:28.429Z,24.00
2019-06-26T05:17:58.742Z,24.00
2019-06-26T05:20:29.074Z,24.10
2019-06-26T05:22:59.372Z,24.10
2019-06-26T05:25:29.674Z,24.10
2019-06-26T05:27:59.996Z,24.20
2019-06-26T05:30:30.305Z,24.20
2019-06-26T05:33:00.601Z,24.30
2019-06-26T05:35:30.949Z,24.30
2019-06-26T05:38:01.241Z,24.40
2019-06-26T05:40:31.545Z,24.40
2019-06-26T05:43:01.864Z,24.50
2019-06-26T05:45:32.152Z,24.50
2019-06-26T05:48:02.544Z,24.60
2019-06-26T05:50:32.913Z,24.70
2019-06-26T05:53:03.235Z,24.70
2019-06-26T05:55:33.558Z,24.80
2019-06-26T05:58:04.554Z,24.80
2019-06-26T06:00:34.861Z,24.80
2019-06-26T06:03:05.181Z,24.90
2019-06-26T06:05:35.555Z,24.90
2019-06-26T06:08:05.879Z,25.00
2019-06-26T06:10:36.148Z,25.00
2019-06-26T06:13:06.476Z,25.10
2019-06-26T06:15:36.747Z,25.10
2019-06-26T06:18:07.045Z,25.20
2019-06-26T06:20:40.752Z,25.20
2019-06-26T06:23:11.076Z,25.30
2019-06-26T06:25:41.365Z,25.30
2019-06-26T06:28:11.643Z,25.40
2019-06-26T06:30:41.935Z,25.40
2019-06-26T06:33:12.233Z,25.40
2019-06-26T06:35:42.562Z,25.50
2019-06-26T06:38:12.837Z,25.50
2019-06-26T06:40:43.155Z,25.60
2019-06-26T06:43:15.151Z,25.60
2019-06-26T06:45:45.422Z,25.70
2019-06-26T06:48:15.696Z,25.70
2019-06-26T06:50:46.015Z,25.80
2019-06-26T06:53:16.312Z,25.80
2019-06-26T06:55:46.626Z,25.90
2019-06-26T06:58:17.062Z,25.90
2019-06-26T07:00:47.386Z,26.00
2019-06-26T07:03:17.693Z,26.00
2019-06-26T07:05:48.050Z,26.10
2019-06-26T07:08:18.350Z,26.10
2019-06-26T07:10:48.736Z,26.20
2019-06-26T07:13:19.009Z,26.30
2019-06-26T07:15:49.301Z,26.40
2019-06-26T07:18:19.581Z,26.50
2019-06-26T07:20:49.898Z,26.60
2019-06-26T07:23:20.203Z,26.80
2019-06-26T07:25:50.518Z,27.00
2019-06-26T07:28:20.905Z,27.20
2019-06-26T07:30:51.182Z,27.40
2019-06-26T07:33:21.484Z,27.50
2019-06-26T07:35:52.868Z,27.60
2019-06-26T07:38:23.151Z,27.80
2019-06-26T07:40:53.441Z,27.90
2019-06-26T07:43:23.731Z,28.00
2019-06-26T07:45:54.030Z,28.10
2019-06-26T07:48:24.335Z,28.10
2019-06-26T07:50:54.671Z,28.20
2019-06-26T07:53:24.942Z,28.30
2019-06-26T07:55:55.253Z,28.30
2019-06-26T07:58:25.574Z,28.30
2019-06-26T08:00:55.902Z,28.30
2019-06-26T08:03:26.204Z,28.30
2019-06-26T08:05:57.564Z,28.30
2019-06-26T08:08:27.850Z,28.30
2019-06-26T08:10:58.174Z,28.30
2019-06-26T08:13:28.492Z,28.30
2019-06-26T08:15:58.825Z,28.30
2019-06-26T08:18:29.099Z,28.30
2019-06-26T08:21:11.477Z,28.20
2019-06-26T08:23:31.410Z,28.30
2019-06-26T08:26:01.725Z,28.30
2019-06-26T08:28:32.028Z,28.30
2019-06-26T08:31:02.347Z,28.30
2019-06-26T08:33:32.650Z,28.30
2019-06-26T08:36:02.999Z,28.30
2019-06-26T08:38:33.289Z,28.30
2019-06-26T08:41:03.591Z,28.30
2019-06-26T08:43:33.915Z,28.30
2019-06-26T08:46:04.230Z,28.30
2019-06-26T08:48:40.086Z,28.30
2019-06-26T08:51:06.503Z,28.40
2019-06-26T08:53:36.824Z,28.40
2019-06-26T08:56:07.168Z,28.40
2019-06-26T08:58:37.458Z,28.40
2019-06-26T09:01:07.729Z,28.50
2019-06-26T09:03:41.899Z,28.50
2019-06-26T09:06:10.059Z,28.50
2019-06-26T09:08:40.441Z,28.50
2019-06-26T09:11:10.728Z,28.60
2019-06-26T09:13:41.062Z,28.60
2019-06-26T09:16:11.339Z,28.60
2019-06-26T09:18:41.666Z,28.60
2019-06-26T09:21:11.971Z,28.70
2019-06-26T09:23:42.295Z,28.70
2019-06-26T09:26:12.589Z,28.70
2019-06-26T09:28:42.896Z,28.70
2019-06-26T09:31:14.381Z,28.80
2019-06-26T09:33:44.696Z,28.80
2019-06-26T09:36:14.998Z,28.80
2019-06-26T09:38:45.314Z,28.90
2019-06-26T09:41:15.609Z,28.90
2019-06-26T09:43:45.897Z,28.90
2019-06-26T09:46:16.178Z,29.00
2019-06-26T09:48:52.903Z,29.00
2019-06-26T09:51:19.194Z,29.10
2019-06-26T09:53:49.482Z,29.10
2019-06-26T09:56:19.819Z,29.20
2019-06-26T09:58:50.219Z,29.20
2019-06-26T10:01:20.496Z,29.20
2019-06-26T10:03:50.787Z,29.20
2019-06-26T10:06:21.084Z,29.30
2019-06-26T10:08:54.160Z,29.30
2019-06-26T10:11:42.717Z,29.40
2019-06-26T10:14:13.026Z,29.40
2019-06-26T10:16:43.342Z,29.50
2019-06-26T10:19:13.684Z,29.50
2019-06-26T10:21:43.993Z,29.50
2019-06-26T10:24:14.275Z,29.60
2019-06-26T10:27:03.911Z,29.60
2019-06-26T10:29:34.195Z,29.70
2019-06-26T10:32:04.588Z,29.70
2019-06-26T10:34:34.940Z,29.70
2019-06-26T10:37:05.269Z,29.80
2019-06-26T10:39:35.549Z,29.80
2019-06-26T10:42:05.907Z,29.80
2019-06-26T10:44:36.245Z,29.90
2019-06-26T10:47:06.538Z,29.90
2019-06-26T10:49:36.800Z,29.90
2019-06-26T10:52:07.182Z,30.00
2019-06-26T10:54:37.497Z,30.00
2019-06-26T10:57:08.163Z,30.00
2019-06-26T10:59:38.440Z,30.10
2019-06-26T11:02:09.496Z,30.10
2019-06-26T11:04:39.796Z,30.10
2019-06-26T11:07:10.103Z,30.20
2019-06-26T11:09:40.371Z,30.20
2019-06-26T11:12:10.642Z,30.20
2019-06-26T11:14:40.965Z,30.20
2019-06-26T11:17:11.217Z,30.30
2019-06-26T11:19:44.567Z,30.30
2019-06-26T11:22:15.036Z,30.30
2019-06-26T11:24:45.380Z,30.30
2019-06-26T11:27:15.622Z,30.30
2019-06-26T11:29:45.930Z,30.40
2019-06-26T11:32:16.295Z,30.40
2019-06-26T11:34:46.660Z,30.40
2019-06-26T11:37:16.930Z,30.40
2019-06-26T11:39:47.230Z,30.50
2019-06-26T11:42:17.514Z,30.50
2019-06-26T11:44:47.798Z,30.50
2019-06-26T11:47:18.088Z,30.50
2019-06-26T11:49:59.276Z,30.60
2019-06-26T11:52:21.509Z,30.60
2019-06-26T11:55:01.871Z,30.60
2019-06-26T11:57:23.901Z,30.60
2019-06-26T11:59:54.159Z,30.70
2019-06-26T12:02:24.549Z,30.70
2019-06-26T12:04:54.989Z,30.70
2019-06-26T12:07:25.270Z,30.80
2019-06-26T12:09:55.737Z,30.80
2019-06-26T12:12:25.988Z,30.80
2019-06-26T12:14:56.259Z,30.80
2019-06-26T12:17:26.555Z,30.80
2019-06-26T12:19:56.824Z,30.90
2019-06-26T12:22:27.135Z,30.90
2019-06-26T12:24:57.429Z,30.90
2019-06-26T12:27:27.719Z,30.90
2019-06-26T12:29:58.013Z,31.00
2019-06-26T12:32:28.321Z,31.00
2019-06-26T12:34:58.605Z,31.00
2019-06-26T12:37:37.653Z,31.10
2019-06-26T12:40:01.012Z,31.10
2019-06-26T12:42:31.263Z,31.10
2019-06-26T12:45:01.525Z,31.10
2019-06-26T12:47:32.988Z,31.20
2019-06-26T12:50:04.189Z,31.20
2019-06-26T12:52:34.485Z,31.20
2019-06-26T12:55:06.578Z,31.20
2019-06-26T12:57:36.880Z,31.20
2019-06-26T13:00:10.179Z,31.30
2019-06-26T13:02:40.630Z,31.30
2019-06-26T13:05:12.051Z,31.30
2019-06-26T13:07:42.362Z,31.30
2019-06-26T13:10:13.361Z,31.30
2019-06-26T13:12:45.941Z,31.30
2019-06-26T13:15:16.210Z,31.40
2019-06-26T13:17:46.465Z,31.40
2019-06-26T13:20:16.908Z,31.40
2019-06-26T13:22:47.260Z,31.40
2019-06-26T13:25:17.927Z,31.40
2019-06-26T13:27:48.462Z,31.40
2019-06-26T13:30:37.700Z,31.50
2019-06-26T13:33:08.131Z,31.50
2019-06-26T13:35:38.379Z,31.40
2019-06-26T13:38:08.644Z,31.50
2019-06-26T13:40:41.060Z,31.50
2019-06-26T13:43:10.862Z,31.50
2019-06-26T13:45:41.113Z,31.50
2019-06-26T13:48:11.389Z,31.50
2019-06-26T13:50:41.732Z,31.50
2019-06-26T13:53:12.000Z,31.50
2019-06-26T13:55:42.935Z,31.60
2019-06-26T13:58:13.202Z,31.60
2019-06-26T14:00:44.529Z,31.60
2019-06-26T14:03:14.802Z,31.60
2019-06-26T14:05:45.068Z,31.60
2019-06-26T14:08:15.349Z,31.60
2019-06-26T14:10:45.554Z,31.60
2019-06-26T14:13:15.893Z,31.70
2019-06-26T14:15:46.148Z,31.70
2019-06-26T14:18:16.419Z,31.70
2019-06-26T14:20:46.702Z,31.70
2019-06-26T14:23:16.940Z,31.70
2019-06-26T14:25:47.206Z,31.70
2019-06-26T14:28:19.773Z,31.80
2019-06-26T14:30:49.468Z,31.80
2019-06-26T14:33:19.732Z,31.80
2019-06-26T14:35:49.986Z,31.80
2019-06-26T14:38:20.257Z,31.90
2019-06-26T14:40:50.521Z,31.90
2019-06-26T14:43:20.792Z,31.90
2019-06-26T14:45:51.051Z,31.90
2019-06-26T14:48:21.389Z,32.00
2019-06-26T14:50:51.648Z,32.00
2019-06-26T14:53:22.896Z,32.00
2019-06-26T14:55:54.125Z,32.00
2019-06-26T14:58:24.677Z,32.00
2019-06-26T15:00:54.934Z,32.00
2019-06-26T15:03:25.560Z,32.00
2019-06-26T15:05:55.881Z,32.00
2019-06-26T15:08:26.178Z,32.00
2019-06-26T15:10:56.422Z,32.00
2019-06-26T15:13:26.689Z,32.00
2019-06-26T15:15:56.965Z,32.00
2019-06-26T15:18:27.236Z,32.00
2019-06-26T15:20:57.531Z,32.00
2019-06-26T15:23:27.768Z,32.00
2019-06-26T15:25:58.045Z,32.00
2019-06-26T15:28:28.305Z,32.00
2019-06-26T15:30:58.599Z,32.00
2019-06-26T15:33:29.813Z,32.00
2019-06-26T15:36:00.091Z,32.00
2019-06-26T15:38:30.353Z,32.00
2019-06-26T15:41:00.628Z,32.00
2019-06-26T15:43:30.882Z,32.00
2019-06-26T15:46:01.226Z,32.00
2019-06-26T15:48:31.503Z,32.00
2019-06-26T15:51:01.845Z,32.00
2019-06-26T15:53:32.096Z,32.00
2019-06-26T15:56:03.451Z,32.10
2019-06-26T15:58:33.714Z,32.10
2019-06-26T16:01:04.055Z,32.10
2019-06-26T16:03:34.332Z,32.10
2019-06-26T16:06:04.992Z,32.10
2019-06-26T16:08:35.246Z,32.10
2019-06-26T16:11:05.522Z,32.10
2019-06-26T16:13:35.789Z,32.10
2019-06-26T16:16:06.064Z,32.10
2019-06-26T16:18:49.995Z,32.10
2019-06-26T16:21:20.262Z,32.00
2019-06-26T16:23:50.518Z,32.00
2019-06-26T16:26:20.793Z,32.00
2019-06-26T16:28:51.055Z,32.00
2019-06-26T16:31:21.327Z,32.00
2019-06-26T16:33:51.586Z,32.00
2019-06-26T16:36:23.862Z,32.00
2019-06-26T16:38:54.114Z,32.00
2019-06-26T16:41:24.392Z,32.00
2019-06-26T16:43:54.670Z,32.00
2019-06-26T16:46:25.997Z,32.00
2019-06-26T16:48:56.623Z,32.00
2019-06-26T16:51:26.910Z,32.00
2019-06-26T16:53:58.138Z,31.90
2019-06-26T16:56:28.432Z,31.90
2019-06-26T16:58:58.698Z,31.90
2019-06-26T17:01:28.972Z,31.90
2019-06-26T17:03:59.227Z,31.90
2019-06-26T17:06:29.502Z,31.90
2019-06-26T17:08:59.771Z,31.90
2019-06-26T17:11:30.077Z,31.80
2019-06-26T17:14:00.529Z,31.80
2019-06-26T17:16:30.809Z,31.80
2019-06-26T17:19:01.075Z,31.70
2019-06-26T17:21:31.488Z,31.70
2019-06-26T17:24:01.753Z,31.70
2019-06-26T17:26:32.037Z,31.70
2019-06-26T17:29:02.303Z,31.70
2019-06-26T17:31:32.591Z,31.60
2019-06-26T17:34:02.847Z,31.60
2019-06-26T17:36:33.133Z,31.60
2019-06-26T17:39:04.628Z,31.60
2019-06-26T17:41:34.901Z,31.50
2019-06-26T17:44:05.305Z,31.50
2019-06-26T17:46:36.655Z,31.50
2019-06-26T17:49:07.902Z,31.40
2019-06-26T17:51:38.178Z,31.40
2019-06-26T17:54:08.451Z,31.40
2019-06-26T17:56:38.716Z,31.30
2019-06-26T17:59:08.978Z,31.30
2019-06-26T18:01:39.255Z,31.30
2019-06-26T18:04:09.514Z,31.20
2019-06-26T18:06:39.802Z,31.20
2019-06-26T18:09:12.310Z,31.20
2019-06-26T18:11:42.822Z,31.10
2019-06-26T18:14:13.053Z,31.10
2019-06-26T18:16:43.319Z,31.10
2019-06-26T18:19:13.607Z,31.00
2019-06-26T18:21:43.865Z,31.00
2019-06-26T18:24:14.145Z,30.90
2019-06-26T18:26:44.412Z,30.90
2019-06-26T18:29:15.440Z,30.80
2019-06-26T18:31:45.773Z,30.80
2019-06-26T18:34:16.042Z,30.70
2019-06-26T18:36:46.376Z,30.70
2019-06-26T18:39:16.583Z,30.70
2019-06-26T18:41:46.849Z,30.70
2019-06-26T18:44:17.123Z,30.60
2019-06-26T18:46:47.471Z,30.60
2019-06-26T18:49:17.750Z,30.50
2019-06-26T18:51:48.078Z,30.50
2019-06-26T18:54:18.446Z,30.50
2019-06-26T18:56:48.691Z,30.40
2019-06-26T18:59:18.967Z,30.40
2019-06-26T19:01:49.334Z,30.30
2019-06-26T19:04:19.576Z,30.30
2019-06-26T19:06:49.854Z,30.20
2019-06-26T19:09:20.122Z,30.20
2019-06-26T19:11:50.390Z,30.20
2019-06-26T19:14:20.645Z,30.10
2019-06-26T19:16:50.924Z,30.10
2019-06-26T19:19:21.201Z,30.00
2019-06-26T19:21:51.471Z,30.00
2019-06-26T19:24:22.724Z,29.90
2019-06-26T19:26:53.001Z,29.90
2019-06-26T19:29:23.317Z,29.90
2019-06-26T19:31:53.625Z,29.80
2019-06-26T19:34:23.910Z,29.80
2019-06-26T19:36:54.182Z,29.70
2019-06-26T19:39:24.441Z,29.70
2019-06-26T19:41:54.718Z,29.60
2019-06-26T19:44:24.982Z,29.60
2019-06-26T19:46:55.286Z,29.60
2019-06-26T19:49:25.556Z,29.50
2019-06-26T19:51:55.812Z,29.50
2019-06-26T19:54:28.658Z,29.40
2019-06-26T19:56:58.056Z,29.40
2019-06-26T19:59:28.335Z,29.30
2019-06-26T20:01:58.594Z,29.30
2019-06-26T20:04:28.870Z,29.30
2019-06-26T20:06:59.146Z,29.20
2019-06-26T20:09:29.421Z,29.20
2019-06-26T20:11:59.693Z,29.10
2019-06-26T20:14:29.991Z,29.10
2019-06-26T20:17:00.302Z,29.10
2019-06-26T20:19:30.576Z,29.00
2019-06-26T20:22:00.835Z,29.00
2019-06-26T20:24:43.331Z,29.00
2019-06-26T20:27:03.084Z,28.90
2019-06-26T20:29:33.357Z,28.90
2019-06-26T20:32:03.620Z,28.80
2019-06-26T20:34:33.935Z,28.80
2019-06-26T20:37:04.164Z,28.80
2019-06-26T20:39:34.446Z,28.70
2019-06-26T20:42:04.710Z,28.70
2019-06-26T20:44:35.056Z,28.70
2019-06-26T20:47:05.312Z,28.60
2019-06-26T20:49:51.967Z,28.60
2019-06-26T20:52:07.552Z,28.60
2019-06-26T20:54:37.847Z,28.50
2019-06-26T20:57:08.097Z,28.50
2019-06-26T20:59:38.454Z,28.50
2019-06-26T21:02:08.770Z,28.50
2019-06-26T21:04:39.042Z,28.40
2019-06-26T21:07:09.320Z,28.40
2019-06-26T21:09:39.578Z,28.40
2019-06-26T21:12:09.840Z,28.30
2019-06-26T21:14:40.115Z,28.30
2019-06-26T21:17:10.370Z,28.30
2019-06-26T21:19:40.661Z,28.30
2019-06-26T21:22:10.923Z,28.20
2019-06-26T21:24:41.196Z,28.20
2019-06-26T21:27:11.460Z,28.10
2019-06-26T21:29:41.727Z,28.10
2019-06-26T21:32:11.989Z,28.10
2019-06-26T21:34:42.257Z,28.10
2019-06-26T21:37:12.518Z,28.00
2019-06-26T21:39:42.806Z,28.00
2019-06-26T21:42:13.087Z,28.00
2019-06-26T21:44:43.349Z,28.00
2019-06-26T21:47:13.622Z,28.00
2019-06-26T21:49:43.894Z,27.90
2019-06-26T21:52:14.153Z,27.90
2019-06-26T21:54:44.437Z,27.90
2019-06-26T21:57:32.366Z,27.80
2019-06-26T22:00:22.177Z,27.80
2019-06-26T22:03:10.956Z,27.70
2019-06-26T22:05:42.853Z,27.70
2019-06-26T22:08:14.804Z,27.70
2019-06-26T22:10:46.690Z,27.70
2019-06-26T22:13:17.029Z,27.70
2019-06-26T22:15:47.376Z,27.70
2019-06-26T22:18:17.705Z,27.60
2019-06-26T22:20:48.114Z,27.60
2019-06-26T22:23:18.375Z,27.60
2019-06-26T22:25:51.322Z,27.60
2019-06-26T22:28:20.611Z,27.50
2019-06-26T22:30:50.890Z,27.50
2019-06-26T22:33:21.150Z,27.50
2019-06-26T22:35:51.420Z,27.50
2019-06-26T22:38:21.682Z,27.50
2019-06-26T22:40:51.990Z,27.40
2019-06-26T22:43:22.291Z,27.40
2019-06-26T22:45:52.558Z,27.40
2019-06-26T22:48:22.818Z,27.30
2019-06-26T22:50:53.094Z,27.30
2019-06-26T22:53:23.378Z,27.30
2019-06-26T22:56:07.084Z,27.30
2019-06-26T22:58:25.698Z,27.30
2019-06-26T23:00:57.089Z,27.30
2019-06-26T23:03:27.481Z,27.20
2019-06-26T23:05:57.910Z,27.20
2019-06-26T23:08:28.182Z,27.20
2019-06-26T23:10:58.497Z,27.20
2019-06-26T23:13:28.762Z,27.10
2019-06-26T23:15:59.036Z,27.10
2019-06-26T23:18:29.299Z,27.10
2019-06-26T23:20:59.575Z,27.10
2019-06-26T23:23:29.896Z,27.00
2019-06-26T23:26:01.143Z,27.00
2019-06-26T23:28:31.415Z,27.00
2019-06-26T23:31:02.759Z,27.00
2019-06-26T23:33:33.041Z,27.00
2019-06-26T23:36:03.309Z,26.90
2019-06-26T23:38:33.613Z,26.90
2019-06-26T23:41:03.862Z,26.90
2019-06-26T23:43:34.154Z,26.90
2019-06-26T23:46:04.431Z,26.90
2019-06-26T23:48:34.723Z,26.90
2019-06-26T23:51:04.988Z,26.80
2019-06-26T23:53:35.268Z,26.80
2019-06-26T23:56:05.606Z,26.80
2019-06-26T23:58:35.886Z,26.80
